Terminal Aerodrome Forecast
Issued by NWS Atlanta, GA

Home | Current Version | Previous Version | Text Only | Print | Product List | Glossary On
Versions: 1 2 3 4 5 6 7 8 9 10 11 12 13 14 15 16 17 18 19 20 21
000
FTUS42 KFFC 242330
TAFMCN
TAF
KMCN 242330Z 2500/2524 19006KT P6SM SCT050
     FM250300 20007KT P6SM FEW050 SCT250
     FM250800 20006KT P6SM BKN015
     FM251100 20006KT P6SM BKN006
     FM251600 21010KT P6SM BKN012
     FM251800 22010KT P6SM VCSH BKN025
     FM252000 23009KT 6SM SHRA OVC035 PROB30 2520/2524 4SM TSRA
      OVC015CB=

USA.gov is the U.S. government's official web portal to all federal, state and local government web resources and services.